Time;durP1;ratioP1;P1;durP2;ratioP2;P2;SDS_P1;SDS_P2;PMS_P1;PMS_P2;Temp;Humidity;BMP_temperature;BMP_pressure;BME280_temperature;BME280_humidity;BME280_pressure;Samples;Min_cycle;Max_cycle;Signal;HPM_P1;HPM_P2
2022/03/03 00:01:09;;;;;;;;;;;4.40;99.90;;;;;;5136351;27;19961;-79
2022/03/03 00:03:35;;;;;;;;;;;4.30;99.90;;;;;;5130607;27;20371;-79
2022/03/03 00:06:00;;;;;;;;;;;4.30;99.90;;;;;;5135228;27;19919;-79
2022/03/03 00:08:26;;;;;;;;;;;4.20;99.90;;;;;;5120828;27;19951;-79
2022/03/03 00:10:51;;;;;;;;;;;4.10;99.90;;;;;;5135120;27;19927;-79
2022/03/03 00:13:17;;;;;;;;;;;4.00;99.90;;;;;;5136028;27;19912;-79
2022/03/03 00:15:42;;;;;;;;;;;4.00;99.90;;;;;;5134649;27;20003;-80
2022/03/03 00:18:07;;;;;;;;;;;3.90;99.90;;;;;;5137425;27;19958;-79
2022/03/03 00:20:33;;;;;;;;;;;3.90;99.90;;;;;;5116260;28;20002;-79
2022/03/03 00:22:59;;;;;;;;;;;3.80;99.90;;;;;;5115366;27;19915;-79
2022/03/03 00:25:24;;;;;;;;;;;3.80;99.90;;;;;;5119769;27;19942;-79
2022/03/03 00:27:49;;;;;;;;;;;3.80;99.90;;;;;;5131909;27;19911;-79
2022/03/03 00:30:15;;;;;;;;;;;3.70;99.90;;;;;;5129679;27;19930;-80
2022/03/03 00:32:41;;;;;;;;;;;3.70;99.90;;;;;;5116927;27;19926;-79
2022/03/03 00:35:10;;;;;;;;;;;3.60;99.90;;;;;;5137797;27;19919;-79
2022/03/03 00:37:36;;;;;;;;;;;3.60;99.90;;;;;;5137902;27;19964;-79
2022/03/03 00:40:03;;;;;;;;;;;3.50;99.90;;;;;;5115168;27;19911;-79
2022/03/03 00:42:28;;;;;;;;;;;3.40;99.90;;;;;;5116968;28;19923;-80
2022/03/03 00:44:54;;;;;;;;;;;3.40;99.90;;;;;;5126518;27;20295;-79
2022/03/03 00:47:19;;;;;;;;;;;3.40;99.90;;;;;;5132281;27;20346;-79
2022/03/03 00:49:45;;;;;;;;;;;3.40;99.90;;;;;;5112883;27;19912;-79
2022/03/03 00:52:10;;;;;;;;;;;3.30;99.90;;;;;;5135195;27;20283;-79
2022/03/03 00:54:35;;;;;;;;;;;3.30;99.90;;;;;;5134749;27;19918;-78
2022/03/03 00:57:01;;;;;;;;;;;3.30;99.90;;;;;;5127480;27;20394;-79
2022/03/03 00:59:26;;;;;;;;;;;3.30;99.90;;;;;;5136904;27;19934;-79
2022/03/03 01:01:52;;;;;;;;;;;3.40;99.90;;;;;;5129062;27;19912;-79
2022/03/03 01:04:19;;;;;;;;;;;3.30;99.90;;;;;;5125341;27;19941;-79
2022/03/03 01:06:45;;;;;;;;;;;3.40;99.90;;;;;;5138177;27;19971;-79
2022/03/03 01:09:10;;;;;;;;;;;3.40;99.90;;;;;;5118075;27;19950;-79
2022/03/03 01:11:35;;;;;;;;;;;3.40;99.90;;;;;;5133439;27;19912;-79
2022/03/03 01:14:01;;;;;;;;;;;3.40;99.90;;;;;;5143502;27;20233;-79
2022/03/03 01:16:26;;;;;;;;;;;3.40;99.90;;;;;;5131842;27;19911;-79
2022/03/03 01:18:52;;;;;;;;;;;3.40;99.90;;;;;;5113564;27;19911;-81
2022/03/03 01:21:17;;;;;;;;;;;3.50;99.90;;;;;;5115924;27;19915;-79
2022/03/03 01:23:43;;;;;;;;;;;3.40;99.90;;;;;;5120671;27;19922;-79
2022/03/03 01:26:08;;;;;;;;;;;3.40;99.90;;;;;;5120996;27;19919;-79
2022/03/03 01:28:34;;;;;;;;;;;3.40;99.90;;;;;;5135390;27;19919;-79
2022/03/03 01:31:00;;;;;;;;;;;3.40;99.90;;;;;;5116611;27;19919;-79
2022/03/03 01:33:25;;;;;;;;;;;3.40;99.90;;;;;;5137680;27;20003;-79
2022/03/03 01:35:50;;;;;;;;;;;3.40;99.90;;;;;;5117038;27;19923;-79
2022/03/03 01:38:16;;;;;;;;;;;3.40;99.90;;;;;;5137806;27;20348;-79
2022/03/03 01:40:47;;;;;;;;;;;3.40;99.90;;;;;;5141075;27;19918;-79
2022/03/03 01:43:13;;;;;;;;;;;3.40;99.90;;;;;;5138476;27;19927;-79
2022/03/03 01:45:38;;;;;;;;;;;3.40;99.90;;;;;;5110487;27;19916;-79
2022/03/03 01:48:04;;;;;;;;;;;3.40;99.90;;;;;;5108002;27;19918;-79
2022/03/03 01:50:29;;;;;;;;;;;3.30;99.90;;;;;;5117469;27;19951;-79
2022/03/03 01:52:55;;;;;;;;;;;3.30;99.90;;;;;;5132064;27;19911;-79
2022/03/03 01:55:21;;;;;;;;;;;3.30;99.90;;;;;;5123684;27;19964;-79
2022/03/03 01:57:48;;;;;;;;;;;3.30;99.90;;;;;;5138315;27;19915;-79
2022/03/03 02:00:13;;;;;;;;;;;3.30;99.90;;;;;;5133248;27;19915;-79
2022/03/03 02:02:39;;;;;;;;;;;3.30;99.90;;;;;;5110776;27;20086;-80
2022/03/03 02:05:06;;;;;;;;;;;3.30;99.90;;;;;;5127010;27;20014;-79
2022/03/03 02:07:31;;;;;;;;;;;3.30;99.90;;;;;;5111336;27;19912;-79
2022/03/03 02:09:57;;;;;;;;;;;3.20;99.90;;;;;;5122387;27;20034;-79
2022/03/03 02:12:22;;;;;;;;;;;3.20;99.90;;;;;;5116296;27;19954;-79
2022/03/03 02:14:48;;;;;;;;;;;3.20;99.90;;;;;;5136262;27;19912;-79
2022/03/03 02:17:15;;;;;;;;;;;3.10;99.90;;;;;;5104806;27;20006;-80
2022/03/03 02:19:40;;;;;;;;;;;3.10;99.90;;;;;;5125519;27;19939;-78
2022/03/03 02:22:06;;;;;;;;;;;3.10;99.90;;;;;;5104059;27;20287;-79
2022/03/03 02:24:32;;;;;;;;;;;3.00;99.90;;;;;;5105123;27;19980;-79
2022/03/03 02:26:59;;;;;;;;;;;3.00;99.90;;;;;;5133876;27;19969;-79
2022/03/03 02:29:24;;;;;;;;;;;2.90;99.90;;;;;;5114271;27;19912;-79
2022/03/03 02:31:50;;;;;;;;;;;2.80;99.90;;;;;;5137330;27;20060;-79
2022/03/03 02:34:16;;;;;;;;;;;2.80;99.90;;;;;;5101524;27;19912;-79
2022/03/03 02:36:41;;;;;;;;;;;2.70;99.90;;;;;;5127566;27;19912;-78
2022/03/03 02:39:07;;;;;;;;;;;2.70;99.90;;;;;;5112693;27;19964;-79
2022/03/03 02:41:33;;;;;;;;;;;2.70;99.90;;;;;;5126479;27;19957;-80
2022/03/03 02:43:59;;;;;;;;;;;2.60;99.90;;;;;;5104726;27;20018;-79
2022/03/03 02:46:25;;;;;;;;;;;2.60;99.90;;;;;;5133938;27;19959;-79
2022/03/03 02:48:50;;;;;;;;;;;2.50;99.90;;;;;;5126918;27;19920;-79
2022/03/03 02:51:16;;;;;;;;;;;2.50;99.90;;;;;;5107755;27;19926;-79
2022/03/03 02:53:42;;;;;;;;;;;2.50;99.90;;;;;;5126431;27;20359;-79
2022/03/03 02:56:07;;;;;;;;;;;2.50;99.90;;;;;;5105633;27;19916;-79
2022/03/03 02:58:33;;;;;;;;;;;2.40;99.90;;;;;;5115683;27;19911;-79
2022/03/03 03:00:59;;;;;;;;;;;2.50;99.90;;;;;;5123179;27;19916;-79
2022/03/03 03:03:25;;;;;;;;;;;2.40;99.90;;;;;;5109243;27;19929;-79
2022/03/03 03:05:51;;;;;;;;;;;2.40;99.90;;;;;;5129584;27;20002;-79
2022/03/03 03:08:16;;;;;;;;;;;2.40;99.90;;;;;;5110704;27;19916;-79
2022/03/03 03:10:42;;;;;;;;;;;2.30;99.90;;;;;;5131145;27;19956;-79
2022/03/03 03:13:08;;;;;;;;;;;2.30;99.90;;;;;;5130248;27;19998;-79
2022/03/03 03:15:33;;;;;;;;;;;2.30;99.90;;;;;;5135099;27;19919;-79
2022/03/03 03:18:18;;;;;;;;;;;2.20;99.90;;;;;;5126037;27;19915;-80
2022/03/03 03:20:45;;;;;;;;;;;2.20;99.90;;;;;;5123270;27;20007;-79
2022/03/03 03:23:13;;;;;;;;;;;2.30;99.90;;;;;;5129054;27;19919;-79
2022/03/03 03:25:43;;;;;;;;;;;2.20;99.90;;;;;;5130250;27;20041;-79
2022/03/03 03:28:09;;;;;;;;;;;2.20;99.90;;;;;;5104121;27;19958;-79
2022/03/03 03:30:34;;;;;;;;;;;2.20;99.90;;;;;;5101937;27;19912;-79
2022/03/03 03:33:00;;;;;;;;;;;2.20;99.90;;;;;;5121741;27;19912;-80
2022/03/03 03:35:25;;;;;;;;;;;2.20;99.90;;;;;;5120564;27;19915;-79
2022/03/03 03:37:51;;;;;;;;;;;2.10;99.90;;;;;;5113655;27;19998;-79
2022/03/03 03:40:17;;;;;;;;;;;2.10;99.90;;;;;;5115909;27;20472;-79
2022/03/03 03:42:42;;;;;;;;;;;2.10;99.90;;;;;;5100134;27;19951;-79
2022/03/03 03:45:08;;;;;;;;;;;2.00;99.90;;;;;;5103629;27;20332;-79
2022/03/03 03:47:34;;;;;;;;;;;2.00;99.90;;;;;;5138245;27;19911;-79
2022/03/03 03:50:02;;;;;;;;;;;2.00;99.90;;;;;;5128966;27;19998;-79
2022/03/03 03:52:31;;;;;;;;;;;1.90;99.90;;;;;;5101191;27;19911;-79
2022/03/03 03:54:56;;;;;;;;;;;1.90;99.90;;;;;;5105438;27;19919;-79
2022/03/03 03:57:22;;;;;;;;;;;1.90;99.90;;;;;;5136441;27;19911;-81
2022/03/03 03:59:47;;;;;;;;;;;1.90;99.90;;;;;;5104708;27;19918;-79
2022/03/03 04:02:13;;;;;;;;;;;1.90;99.90;;;;;;5128010;27;20435;-79
2022/03/03 04:04:38;;;;;;;;;;;1.90;99.90;;;;;;5101384;27;19938;-79
2022/03/03 04:07:04;;;;;;;;;;;1.90;99.90;;;;;;5128096;27;19918;-79
2022/03/03 04:09:29;;;;;;;;;;;1.80;99.90;;;;;;5111497;27;20328;-79
2022/03/03 04:11:55;;;;;;;;;;;1.90;99.90;;;;;;5116757;27;19916;-79
2022/03/03 04:14:20;;;;;;;;;;;1.80;99.90;;;;;;5130969;27;19919;-79
2022/03/03 04:16:46;;;;;;;;;;;1.80;99.90;;;;;;5113301;27;19911;-80
2022/03/03 04:19:11;;;;;;;;;;;1.80;99.90;;;;;;5129463;27;19915;-79
2022/03/03 04:21:37;;;;;;;;;;;1.80;99.90;;;;;;5112515;27;20368;-79
2022/03/03 04:24:02;;;;;;;;;;;1.80;99.90;;;;;;5120918;27;19937;-79
2022/03/03 04:26:28;;;;;;;;;;;1.80;99.90;;;;;;5105489;27;19922;-79
2022/03/03 04:28:53;;;;;;;;;;;1.80;99.90;;;;;;5125262;27;19934;-79
2022/03/03 04:31:19;;;;;;;;;;;1.80;99.90;;;;;;5108473;28;19931;-80
2022/03/03 04:33:45;;;;;;;;;;;1.80;99.90;;;;;;5124042;27;19997;-79
2022/03/03 04:36:11;;;;;;;;;;;1.80;99.90;;;;;;5110678;27;19951;-79
2022/03/03 04:38:36;;;;;;;;;;;1.80;99.90;;;;;;5124163;27;19920;-79
2022/03/03 04:41:02;;;;;;;;;;;1.80;99.90;;;;;;5131321;27;19923;-79
2022/03/03 04:43:27;;;;;;;;;;;1.70;99.90;;;;;;5111173;28;19916;-79
2022/03/03 04:45:53;;;;;;;;;;;1.70;99.90;;;;;;5109965;27;19948;-79
2022/03/03 04:48:18;;;;;;;;;;;1.70;99.90;;;;;;5127303;27;19926;-79
2022/03/03 04:50:44;;;;;;;;;;;1.70;99.90;;;;;;5107257;28;20336;-79
2022/03/03 04:53:09;;;;;;;;;;;1.70;99.90;;;;;;5102252;27;20291;-79
2022/03/03 04:55:35;;;;;;;;;;;1.60;99.90;;;;;;5124395;27;19951;-79
2022/03/03 04:58:02;;;;;;;;;;;1.60;99.90;;;;;;5127855;27;20354;-79
2022/03/03 05:00:27;;;;;;;;;;;1.60;99.90;;;;;;5112373;28;19926;-79
2022/03/03 05:02:53;;;;;;;;;;;1.60;99.90;;;;;;5128439;27;19919;-79
2022/03/03 05:05:18;;;;;;;;;;;1.60;99.90;;;;;;5112295;27;19942;-79
2022/03/03 05:07:43;;;;;;;;;;;1.60;99.90;;;;;;5127755;27;20410;-79
2022/03/03 05:10:09;;;;;;;;;;;1.60;99.90;;;;;;5111525;27;19916;-79
2022/03/03 05:12:35;;;;;;;;;;;1.60;99.90;;;;;;5129634;27;20010;-79
2022/03/03 05:15:00;;;;;;;;;;;1.60;99.90;;;;;;5116355;27;20352;-79
2022/03/03 05:17:25;;;;;;;;;;;1.50;99.90;;;;;;5115398;27;19926;-79
2022/03/03 05:19:51;;;;;;;;;;;1.50;99.90;;;;;;5135548;27;20006;-80
2022/03/03 05:22:16;;;;;;;;;;;1.50;99.90;;;;;;5114948;27;19911;-79
2022/03/03 05:24:42;;;;;;;;;;;1.50;99.90;;;;;;5130811;27;19927;-79
2022/03/03 05:27:08;;;;;;;;;;;1.40;99.90;;;;;;5132688;27;19981;-79
2022/03/03 05:29:34;;;;;;;;;;;1.50;99.90;;;;;;5126450;27;19947;-79
2022/03/03 05:31:59;;;;;;;;;;;1.50;99.90;;;;;;5135945;27;20371;-79
2022/03/03 05:34:28;;;;;;;;;;;1.50;99.90;;;;;;5124891;27;19951;-79
2022/03/03 05:36:54;;;;;;;;;;;1.60;99.90;;;;;;5110084;27;19915;-79
2022/03/03 05:39:20;;;;;;;;;;;1.60;99.90;;;;;;5129018;27;19915;-79
2022/03/03 05:41:45;;;;;;;;;;;1.60;99.90;;;;;;5127476;27;19920;-79
2022/03/03 05:44:12;;;;;;;;;;;1.60;99.90;;;;;;5126410;27;19927;-79
2022/03/03 05:46:38;;;;;;;;;;;1.60;99.90;;;;;;5128342;27;20268;-79
2022/03/03 05:49:04;;;;;;;;;;;1.60;99.90;;;;;;5133196;27;20340;-79
2022/03/03 05:51:31;;;;;;;;;;;1.50;99.90;;;;;;5106731;28;19919;-79
2022/03/03 05:53:56;;;;;;;;;;;1.50;99.90;;;;;;5111312;27;19911;-79
2022/03/03 05:56:22;;;;;;;;;;;1.50;99.90;;;;;;5120706;27;19931;-79
2022/03/03 05:58:49;;;;;;;;;;;1.40;99.90;;;;;;5125216;27;19960;-79
2022/03/03 06:01:15;;;;;;;;;;;1.30;99.90;;;;;;5121172;27;19911;-79
2022/03/03 06:03:41;;;;;;;;;;;1.30;99.90;;;;;;5120029;27;19915;-79
2022/03/03 06:06:06;;;;;;;;;;;1.30;99.90;;;;;;5111995;27;19965;-79
2022/03/03 06:08:38;;;;;;;;;;;1.30;99.90;;;;;;5114847;27;19995;-79
2022/03/03 06:11:05;;;;;;;;;;;1.30;99.90;;;;;;5136638;27;19919;-79
2022/03/03 06:13:38;;;;;;;;;;;1.30;99.90;;;;;;5114921;27;19919;-79
2022/03/03 06:16:04;;;;;;;;;;;1.30;99.90;;;;;;5108469;27;19912;-79
2022/03/03 06:18:33;;;;;;;;;;;1.20;99.90;;;;;;5135885;27;19918;-79
2022/03/03 06:20:59;;;;;;;;;;;1.20;99.90;;;;;;5119626;27;20357;-79
2022/03/03 06:23:25;;;;;;;;;;;1.10;99.90;;;;;;5111340;27;19922;-79
2022/03/03 06:26:02;;;;;;;;;;;1.10;99.90;;;;;;5125993;27;19931;-80
2022/03/03 06:28:28;;;;;;;;;;;1.10;99.90;;;;;;5133557;27;20118;-79
2022/03/03 06:30:54;;;;;;;;;;;1.10;99.90;;;;;;5131185;27;19919;-79
2022/03/03 06:33:19;;;;;;;;;;;1.10;99.90;;;;;;5135415;27;19911;-79
2022/03/03 06:35:45;;;;;;;;;;;1.20;99.90;;;;;;5119013;27;20394;-79
2022/03/03 06:38:10;;;;;;;;;;;1.20;99.90;;;;;;5125572;27;19920;-79
2022/03/03 06:40:36;;;;;;;;;;;1.40;99.90;;;;;;5114389;27;19912;-79
2022/03/03 06:43:01;;;;;;;;;;;1.60;99.90;;;;;;5116037;27;19923;-79
2022/03/03 06:45:28;;;;;;;;;;;1.70;99.90;;;;;;5117198;27;19915;-81
2022/03/03 06:47:54;;;;;;;;;;;1.80;99.90;;;;;;5135152;27;19919;-79
2022/03/03 06:50:19;;;;;;;;;;;1.80;99.90;;;;;;5132856;27;20383;-79
2022/03/03 06:52:46;;;;;;;;;;;1.90;99.90;;;;;;5117034;27;19911;-79
2022/03/03 06:55:13;;;;;;;;;;;2.00;99.90;;;;;;5143403;27;20023;-80
2022/03/03 06:57:39;;;;;;;;;;;2.10;99.90;;;;;;5129731;27;19915;-79
2022/03/03 07:00:05;;;;;;;;;;;2.20;99.90;;;;;;5119005;27;19915;-79
2022/03/03 07:02:31;;;;;;;;;;;2.50;99.90;;;;;;5110533;27;19915;-80
2022/03/03 07:04:57;;;;;;;;;;;3.00;99.90;;;;;;5126095;27;20338;-80
2022/03/03 07:07:22;;;;;;;;;;;3.20;99.90;;;;;;5136415;27;19981;-80
2022/03/03 07:09:48;;;;;;;;;;;3.50;99.90;;;;;;5116373;27;19962;-80
2022/03/03 07:12:14;;;;;;;;;;;3.80;99.90;;;;;;5117414;27;19980;-79
2022/03/03 07:14:40;;;;;;;;;;;3.90;99.90;;;;;;5132288;27;19912;-80
2022/03/03 07:17:09;;;;;;;;;;;4.40;99.90;;;;;;5112263;27;19927;-80
2022/03/03 07:19:34;;;;;;;;;;;6.20;99.90;;;;;;5131876;27;19911;-80
2022/03/03 07:22:19;;;;;;;;;;;9.10;99.90;;;;;;5133353;27;20306;-80
2022/03/03 07:24:46;;;;;;;;;;;12.10;99.90;;;;;;5131397;27;20006;-81
2022/03/03 07:27:23;;;;;;;;;;;15.00;99.90;;;;;;5117847;27;19912;-81
2022/03/03 07:29:59;;;;;;;;;;;17.30;99.90;;;;;;5121686;27;19915;-81
2022/03/03 07:32:29;;;;;;;;;;;19.10;99.90;;;;;;5120956;27;19994;-82
2022/03/03 07:34:57;;;;;;;;;;;20.80;99.90;;;;;;5120987;27;19912;-82
2022/03/03 07:37:30;;;;;;;;;;;22.30;99.90;;;;;;5124610;27;19911;-82
2022/03/03 07:40:00;;;;;;;;;;;22.90;99.90;;;;;;5115722;27;19936;-82
2022/03/03 07:42:26;;;;;;;;;;;23.90;99.90;;;;;;5121459;27;20222;-81
2022/03/03 07:44:51;;;;;;;;;;;24.50;99.90;;;;;;5118387;27;19912;-82
2022/03/03 07:47:17;;;;;;;;;;;24.90;99.90;;;;;;5133681;27;20484;-82
2022/03/03 07:49:45;;;;;;;;;;;24.90;99.90;;;;;;5110472;28;19908;-82
2022/03/03 07:52:10;;;;;;;;;;;24.70;99.90;;;;;;5114647;27;20340;-80
2022/03/03 07:54:36;;;;;;;;;;;25.20;99.90;;;;;;5133914;27;19915;-80
2022/03/03 07:57:01;;;;;;;;;;;25.30;99.90;;;;;;5112359;27;19917;-80
2022/03/03 07:59:32;;;;;;;;;;;25.30;99.90;;;;;;5120281;27;19912;-80
2022/03/03 08:01:59;;;;;;;;;;;25.40;99.90;;;;;;5147337;27;19919;-81
2022/03/03 08:04:27;;;;;;;;;;;25.40;99.90;;;;;;5138118;27;20006;-81
2022/03/03 08:06:55;;;;;;;;;;;24.80;99.90;;;;;;5119625;27;19916;-81
2022/03/03 08:09:24;;;;;;;;;;;25.60;99.90;;;;;;5131160;27;19911;-81
2022/03/03 08:11:51;;;;;;;;;;;26.10;99.90;;;;;;5101033;28;19919;-81
2022/03/03 08:14:17;;;;;;;;;;;26.30;99.90;;;;;;5117231;27;20271;-80
2022/03/03 08:16:45;;;;;;;;;;;26.10;99.90;;;;;;5108651;28;20084;-80
2022/03/03 08:19:11;;;;;;;;;;;26.90;99.90;;;;;;5106474;27;19915;-81
2022/03/03 08:21:36;;;;;;;;;;;27.30;99.90;;;;;;5122829;27;20010;-81
2022/03/03 08:24:02;;;;;;;;;;;28.30;99.90;;;;;;5140761;27;19915;-81
2022/03/03 08:26:30;;;;;;;;;;;28.10;99.90;;;;;;5118668;27;20152;-81
2022/03/03 08:28:55;;;;;;;;;;;29.10;99.90;;;;;;5128872;27;19912;-82
2022/03/03 08:31:26;;;;;;;;;;;29.50;99.90;;;;;;5130037;27;19918;-81
2022/03/03 08:33:53;;;;;;;;;;;29.50;99.90;;;;;;5108731;28;19920;-81
2022/03/03 08:36:29;;;;;;;;;;;29.50;99.90;;;;;;5128804;27;19915;-81
2022/03/03 08:38:57;;;;;;;;;;;28.20;99.90;;;;;;5112475;28;19919;-80
2022/03/03 08:41:22;;;;;;;;;;;27.40;99.90;;;;;;5129644;27;19912;-81
2022/03/03 08:43:52;;;;;;;;;;;26.40;99.90;;;;;;5125011;27;20451;-80
2022/03/03 08:46:22;;;;;;;;;;;26.80;99.90;;;;;;5111921;28;19911;-81
2022/03/03 08:48:48;;;;;;;;;;;27.60;99.90;;;;;;5112466;28;19912;-81
2022/03/03 08:51:15;;;;;;;;;;;27.00;99.90;;;;;;5114846;28;19943;-80
2022/03/03 08:53:41;;;;;;;;;;;27.90;99.90;;;;;;5113774;28;19922;-80
2022/03/03 08:56:08;;;;;;;;;;;27.70;99.90;;;;;;5136155;28;19911;-80
2022/03/03 08:58:34;;;;;;;;;;;28.50;99.90;;;;;;5131496;28;19991;-81
2022/03/03 09:00:59;;;;;;;;;;;29.10;99.90;;;;;;5120392;28;20001;-83
2022/03/03 09:03:25;;;;;;;;;;;29.30;99.90;;;;;;5114581;28;19912;-80
2022/03/03 09:05:51;;;;;;;;;;;29.20;99.90;;;;;;5112755;28;19915;-80
2022/03/03 09:08:17;;;;;;;;;;;28.90;99.90;;;;;;5131396;28;19922;-81
2022/03/03 09:10:43;;;;;;;;;;;28.20;99.90;;;;;;5131545;28;19911;-80
2022/03/03 09:13:09;;;;;;;;;;;28.10;99.90;;;;;;5115419;28;19927;-81
2022/03/03 09:15:35;;;;;;;;;;;27.30;99.90;;;;;;5136002;28;19994;-80
2022/03/03 09:18:00;;;;;;;;;;;27.70;99.90;;;;;;5127062;27;19912;-80
2022/03/03 09:20:26;;;;;;;;;;;26.20;99.90;;;;;;5135660;27;19915;-81
2022/03/03 09:22:52;;;;;;;;;;;25.60;99.90;;;;;;5121733;27;20399;-81
2022/03/03 09:25:18;;;;;;;;;;;25.90;99.90;;;;;;5110583;28;20117;-81
2022/03/03 09:27:43;;;;;;;;;;;25.40;99.90;;;;;;5117387;27;20360;-80
2022/03/03 09:30:09;;;;;;;;;;;25.90;99.90;;;;;;5138509;27;19967;-80
2022/03/03 09:32:35;;;;;;;;;;;26.50;99.90;;;;;;5119855;27;19922;-80
2022/03/03 09:35:00;;;;;;;;;;;27.20;99.90;;;;;;5120097;28;19918;-80
2022/03/03 09:37:26;;;;;;;;;;;27.40;99.90;;;;;;5114359;27;19918;-81
2022/03/03 09:39:51;;;;;;;;;;;27.60;99.90;;;;;;5116447;27;19943;-81
2022/03/03 09:42:17;;;;;;;;;;;28.70;99.90;;;;;;5118079;27;19994;-81
2022/03/03 09:44:43;;;;;;;;;;;29.20;99.90;;;;;;5140744;27;20355;-81
2022/03/03 09:47:09;;;;;;;;;;;28.40;99.90;;;;;;5123236;27;19938;-81
2022/03/03 09:49:34;;;;;;;;;;;27.80;99.90;;;;;;5137437;27;19915;-81
2022/03/03 09:52:01;;;;;;;;;;;27.80;99.90;;;;;;5135260;27;19912;-81
2022/03/03 09:54:26;;;;;;;;;;;26.90;99.90;;;;;;5136202;27;20003;-80
2022/03/03 09:56:52;;;;;;;;;;;27.70;99.90;;;;;;5116189;28;19919;-81
2022/03/03 09:59:17;;;;;;;;;;;28.70;99.90;;;;;;5118809;27;20237;-81
2022/03/03 10:01:45;;;;;;;;;;;28.80;99.90;;;;;;5132512;27;20416;-80
2022/03/03 10:04:15;;;;;;;;;;;28.70;99.90;;;;;;5125814;27;19920;-80
2022/03/03 10:06:41;;;;;;;;;;;28.10;99.90;;;;;;5119462;27;20336;-80
2022/03/03 10:09:07;;;;;;;;;;;27.70;99.90;;;;;;5120011;27;19947;-80
2022/03/03 10:11:38;;;;;;;;;;;27.50;99.90;;;;;;5113475;27;19918;-80
2022/03/03 10:14:03;;;;;;;;;;;27.20;99.90;;;;;;5119106;27;19911;-80
2022/03/03 10:16:30;;;;;;;;;;;27.30;99.90;;;;;;5121007;27;19912;-80
2022/03/03 10:19:04;;;;;;;;;;;26.90;99.90;;;;;;5117573;27;19994;-81
2022/03/03 10:21:30;;;;;;;;;;;27.60;99.90;;;;;;5136856;27;19918;-81
2022/03/03 10:23:57;;;;;;;;;;;27.20;99.90;;;;;;5118173;27;20014;-81
2022/03/03 10:26:33;;;;;;;;;;;26.60;99.90;;;;;;5118242;27;19916;-80
2022/03/03 10:28:59;;;;;;;;;;;26.60;99.90;;;;;;5136624;27;19915;-80
2022/03/03 10:31:25;;;;;;;;;;;26.50;99.90;;;;;;5113985;27;19911;-80
2022/03/03 10:33:51;;;;;;;;;;;26.80;99.90;;;;;;5115371;27;19919;-80
2022/03/03 10:36:16;;;;;;;;;;;26.60;99.90;;;;;;5133289;27;19911;-80
2022/03/03 10:38:45;;;;;;;;;;;27.40;99.90;;;;;;5112426;27;19953;-80
2022/03/03 10:41:29;;;;;;;;;;;26.70;99.90;;;;;;5130036;27;19911;-80
2022/03/03 10:43:55;;;;;;;;;;;26.60;99.90;;;;;;5129966;27;20010;-80
2022/03/03 10:46:21;;;;;;;;;;;26.60;99.90;;;;;;5129909;27;19962;-80
2022/03/03 10:48:46;;;;;;;;;;;27.60;99.90;;;;;;5136474;27;19916;-80
2022/03/03 10:51:16;;;;;;;;;;;28.50;99.90;;;;;;5117597;27;20376;-80
2022/03/03 10:53:42;;;;;;;;;;;28.70;99.90;;;;;;5111965;27;19911;-80
2022/03/03 10:56:14;;;;;;;;;;;28.10;99.90;;;;;;5114473;27;19942;-80
2022/03/03 10:58:52;;;;;;;;;;;27.40;99.90;;;;;;5110408;27;19912;-80
2022/03/03 11:01:20;;;;;;;;;;;28.00;99.90;;;;;;5127453;27;19993;-80
2022/03/03 11:03:52;;;;;;;;;;;27.50;99.90;;;;;;5124737;27;19923;-80
2022/03/03 11:06:18;;;;;;;;;;;28.70;99.90;;;;;;5117576;27;19915;-79
2022/03/03 11:08:44;;;;;;;;;;;29.40;99.90;;;;;;5111903;27;19915;-80
2022/03/03 11:11:10;;;;;;;;;;;29.80;99.90;;;;;;5130984;27;19999;-80
2022/03/03 11:13:36;;;;;;;;;;;29.10;99.90;;;;;;5114733;27;19911;-80
2022/03/03 11:16:02;;;;;;;;;;;28.20;99.90;;;;;;5139095;27;19935;-80
2022/03/03 11:18:28;;;;;;;;;;;28.30;99.90;;;;;;5123473;27;19916;-80
2022/03/03 11:20:54;;;;;;;;;;;28.10;99.90;;;;;;5126667;27;19919;-80
2022/03/03 11:23:20;;;;;;;;;;;28.00;99.90;;;;;;5134477;27;20315;-81
2022/03/03 11:25:46;;;;;;;;;;;27.80;99.90;;;;;;5133048;27;20376;-81
2022/03/03 11:28:14;;;;;;;;;;;27.90;99.90;;;;;;5130031;27;19966;-80
2022/03/03 11:30:40;;;;;;;;;;;26.90;99.90;;;;;;5115758;27;20432;-81
2022/03/03 11:33:21;;;;;;;;;;;26.30;99.90;;;;;;5135404;27;19927;-80
2022/03/03 11:35:50;;;;;;;;;;;26.00;99.90;;;;;;5136834;27;19973;-80
2022/03/03 11:38:16;;;;;;;;;;;25.70;99.90;;;;;;5136804;27;19911;-80
2022/03/03 11:40:52;;;;;;;;;;;25.80;99.90;;;;;;5133446;27;19916;-80
2022/03/03 11:43:17;;;;;;;;;;;26.40;99.90;;;;;;5114521;27;19915;-80
2022/03/03 11:45:50;;;;;;;;;;;26.20;99.90;;;;;;5135069;27;19912;-80
2022/03/03 11:48:16;;;;;;;;;;;25.70;99.90;;;;;;5144960;27;20006;-82
2022/03/03 11:50:43;;;;;;;;;;;25.70;99.90;;;;;;5141863;27;19915;-81
2022/03/03 11:53:08;;;;;;;;;;;25.20;99.90;;;;;;5120208;27;19991;-80
2022/03/03 11:55:46;;;;;;;;;;;24.50;99.90;;;;;;5118203;27;19911;-80
2022/03/03 11:58:13;;;;;;;;;;;24.50;99.90;;;;;;5117243;27;19912;-81
2022/03/03 12:00:41;;;;;;;;;;;24.80;99.90;;;;;;5116702;27;19934;-81
2022/03/03 12:03:08;;;;;;;;;;;24.70;99.90;;;;;;5134461;27;19921;-80
2022/03/03 12:05:36;;;;;;;;;;;24.80;99.90;;;;;;5116114;27;19912;-80
2022/03/03 12:08:26;;;;;;;;;;;24.60;99.90;;;;;;5118604;27;19912;-80
2022/03/03 12:11:00;;;;;;;;;;;24.70;99.90;;;;;;5118858;27;19979;-81
2022/03/03 12:13:26;;;;;;;;;;;24.10;99.90;;;;;;5108166;27;19919;-80
2022/03/03 12:16:10;;;;;;;;;;;23.20;99.90;;;;;;5132303;27;19915;-80
2022/03/03 12:18:36;;;;;;;;;;;23.30;99.90;;;;;;5117301;27;19912;-80
2022/03/03 12:21:20;;;;;;;;;;;23.40;99.90;;;;;;5120515;27;19919;-80
2022/03/03 12:23:46;;;;;;;;;;;23.30;99.90;;;;;;5146649;27;19930;-80
2022/03/03 12:26:11;;;;;;;;;;;23.60;99.90;;;;;;5128088;27;19978;-81
2022/03/03 12:28:45;;;;;;;;;;;24.10;99.90;;;;;;5131026;27;19912;-81
2022/03/03 12:31:18;;;;;;;;;;;24.60;99.90;;;;;;5125483;27;19964;-81
2022/03/03 12:33:54;;;;;;;;;;;23.80;99.90;;;;;;5115454;27;19916;-81
2022/03/03 12:36:19;;;;;;;;;;;23.50;99.90;;;;;;5143868;27;19989;-81
2022/03/03 12:38:45;;;;;;;;;;;23.10;99.90;;;;;;5142383;27;19911;-81
2022/03/03 12:41:10;;;;;;;;;;;22.80;99.90;;;;;;5127487;28;19911;-81
2022/03/03 12:43:37;;;;;;;;;;;22.80;99.90;;;;;;5128035;27;19983;-81
2022/03/03 12:46:02;;;;;;;;;;;23.00;99.90;;;;;;5124442;28;19915;-80
2022/03/03 12:48:29;;;;;;;;;;;22.10;99.90;;;;;;5121431;27;19926;-80
2022/03/03 12:51:02;;;;;;;;;;;22.00;99.90;;;;;;5127227;27;19982;-81
2022/03/03 12:53:33;;;;;;;;;;;22.20;99.90;;;;;;5144979;27;19920;-81
2022/03/03 12:55:58;;;;;;;;;;;21.90;99.90;;;;;;5154346;27;19988;-81
2022/03/03 12:58:24;;;;;;;;;;;22.20;99.90;;;;;;5148832;27;19915;-81
2022/03/03 13:00:49;;;;;;;;;;;22.30;99.90;;;;;;5153947;27;19915;-81
2022/03/03 13:03:18;;;;;;;;;;;22.00;99.90;;;;;;5148515;27;19927;-81
2022/03/03 13:05:47;;;;;;;;;;;22.00;99.90;;;;;;5132691;27;19982;-82
2022/03/03 13:08:22;;;;;;;;;;;22.10;99.90;;;;;;5153188;27;19987;-82
2022/03/03 13:10:48;;;;;;;;;;;22.00;99.90;;;;;;5130989;27;19919;-83
2022/03/03 13:13:14;;;;;;;;;;;22.00;99.90;;;;;;5133019;27;19942;-82
2022/03/03 13:15:39;;;;;;;;;;;21.80;99.90;;;;;;5130337;27;19960;-83
2022/03/03 13:18:10;;;;;;;;;;;21.90;99.90;;;;;;5133499;27;19915;-82
2022/03/03 13:20:37;;;;;;;;;;;22.00;99.90;;;;;;5129491;27;19933;-83
2022/03/03 13:23:03;;;;;;;;;;;22.00;99.90;;;;;;5132376;27;19915;-83
2022/03/03 13:25:29;;;;;;;;;;;21.50;99.90;;;;;;5148654;27;19930;-83
2022/03/03 13:27:55;;;;;;;;;;;20.90;99.90;;;;;;5153644;27;20276;-82
2022/03/03 13:30:21;;;;;;;;;;;20.90;99.90;;;;;;5148649;27;19954;-82
2022/03/03 13:32:47;;;;;;;;;;;21.30;99.90;;;;;;5131561;27;19938;-82
2022/03/03 13:35:13;;;;;;;;;;;20.90;99.90;;;;;;5131978;27;19920;-80
2022/03/03 13:37:39;;;;;;;;;;;20.70;99.90;;;;;;5142146;27;19918;-80
2022/03/03 13:40:20;;;;;;;;;;;20.60;99.90;;;;;;5126475;27;19915;-81
2022/03/03 13:42:45;;;;;;;;;;;20.80;99.90;;;;;;5112318;27;19929;-81
2022/03/03 13:45:11;;;;;;;;;;;21.00;99.90;;;;;;5118944;27;19983;-80
2022/03/03 13:47:41;;;;;;;;;;;20.80;99.90;;;;;;5121954;27;20013;-81
2022/03/03 13:50:08;;;;;;;;;;;20.60;99.90;;;;;;5112838;27;19912;-81
2022/03/03 13:52:35;;;;;;;;;;;20.70;99.90;;;;;;5138412;27;19912;-80
2022/03/03 13:55:18;;;;;;;;;;;20.80;99.90;;;;;;5117967;27;19998;-80
2022/03/03 13:57:45;;;;;;;;;;;20.50;99.90;;;;;;5137248;27;19915;-80
2022/03/03 14:00:25;;;;;;;;;;;19.80;99.90;;;;;;5143343;27;20434;-80
2022/03/03 14:03:02;;;;;;;;;;;19.70;99.90;;;;;;5122470;27;19919;-81
2022/03/03 14:05:31;;;;;;;;;;;19.20;99.90;;;;;;5128167;27;20334;-80
2022/03/03 14:07:56;;;;;;;;;;;19.30;99.90;;;;;;5144120;27;19911;-80
2022/03/03 14:10:22;;;;;;;;;;;19.50;99.90;;;;;;5144176;27;19927;-80
2022/03/03 14:13:04;;;;;;;;;;;19.50;99.90;;;;;;5144387;27;19912;-80
2022/03/03 14:15:29;;;;;;;;;;;19.20;99.90;;;;;;5144204;27;20592;-80
2022/03/03 14:17:55;;;;;;;;;;;19.10;99.90;;;;;;5126937;27;19971;-80
2022/03/03 14:20:21;;;;;;;;;;;19.20;99.90;;;;;;5124936;27;19912;-80
2022/03/03 14:22:58;;;;;;;;;;;19.20;99.90;;;;;;5132844;27;19923;-80